CheckWX is a tool to help pilots better visualize weather data.  It is not intended as a substitute for an official pre-flight weather briefing.

17:02:18 UTC

KRND METAR
Randolph AFB Airport
Universal City, Texas, USA
Current

1 hour ago

KRND 101556Z 16011KT 10SM SCT026 OVC033 31/22 A3002 RMK AO2A SLP156 T03080224 $
Observed
Jul-10 @ 15:56 UTC
Wind
  • 160° at 11 KTS
Visibility
10 SM
Flight Rules
VFR
Cloud Levels
  • Scattered at 2,600' AGL
  • Overcast at 3,300' AGL
Temperature
31°C / 88°F
Dewpoint
22°C / 72°F
Humidity
59%
Altimeter
30.02" Hg
Pressure
1016.62 hPa
Previous

1 hour ago

KRND 101546Z AUTO 17010KT 10SM SCT024 OVC031 31/22 A3003 RMK AO2 SLP160 $
Observed
Jul-10 @ 15:46 UTC
Wind
  • 170° at 10 KTS
Visibility
10 SM
Flight Rules
VFR
Cloud Levels
  • Scattered at 2,400' AGL
  • Overcast at 3,100' AGL
Temperature
31°C / 88°F
Dewpoint
22°C / 72°F
Humidity
59%
Altimeter
30.03" Hg
Pressure
1016.92 hPa
Previous

2 hours ago

KRND 101516Z AUTO 17010KT 10SM BKN023 OVC030 29/23 A3003 RMK AO2 SLP160 $
Observed
Jul-10 @ 15:16 UTC
Wind
  • 170° at 10 KTS
Visibility
10 SM
Flight Rules
MVFR
Cloud Levels
  • Broken at 2,300' AGL
  • Overcast at 3,000' AGL
Temperature
29°C / 84°F
Dewpoint
23°C / 73°F
Humidity
70%
Altimeter
30.03" Hg
Pressure
1016.92 hPa